Time;durP1;ratioP1;P1;durP2;ratioP2;P2;SDS_P1;SDS_P2;PMS_P1;PMS_P2;Temp;Humidity;BMP_temperature;BMP_pressure;BME280_temperature;BME280_humidity;BME280_pressure;Samples;Min_cycle;Max_cycle;Signal;HPM_P1;HPM_P2
2021/06/07 00:00:53;;;;;;;1.52;1.42;;;16.20;99.90;;;;;;5026808;28;20104;-72
2021/06/07 00:03:19;;;;;;;1.65;1.55;;;16.30;99.90;;;;;;5024478;28;20104;-72
2021/06/07 00:05:44;;;;;;;1.67;1.55;;;16.30;99.90;;;;;;5023843;28;20570;-73
2021/06/07 00:08:10;;;;;;;2.63;1.75;;;16.20;99.90;;;;;;5027135;28;20172;-73
2021/06/07 00:10:37;;;;;;;1.70;1.60;;;16.20;99.90;;;;;;5024018;28;20074;-73
2021/06/07 00:13:04;;;;;;;2.15;1.98;;;16.20;99.90;;;;;;5022915;28;20086;-74
2021/06/07 00:15:30;;;;;;;1.92;1.70;;;16.10;99.90;;;;;;5024170;28;20073;-72
2021/06/07 00:17:57;;;;;;;2.58;1.52;;;16.10;99.90;;;;;;5025533;28;20118;-72
2021/06/07 00:20:34;;;;;;;1.40;1.30;;;16.20;99.90;;;;;;5027952;28;20074;-74
2021/06/07 00:23:00;;;;;;;1.65;1.55;;;16.20;99.90;;;;;;5020062;28;20119;-69
2021/06/07 00:25:26;;;;;;;2.42;1.77;;;16.10;99.90;;;;;;5027847;28;20090;-73
2021/06/07 00:27:51;;;;;;;1.77;1.48;;;16.10;99.90;;;;;;5026746;28;20225;-70
2021/06/07 00:30:17;;;;;;;2.08;1.88;;;16.10;99.90;;;;;;5027222;28;20078;-73
2021/06/07 00:32:43;;;;;;;1.65;1.50;;;16.10;99.90;;;;;;5029002;28;20106;-72
2021/06/07 00:35:09;;;;;;;2.75;1.85;;;16.10;99.90;;;;;;5026637;28;20116;-74
2021/06/07 00:37:35;;;;;;;2.15;1.98;;;16.10;99.90;;;;;;5026029;28;20113;-73
2021/06/07 00:40:01;;;;;;;2.15;1.95;;;16.10;99.90;;;;;;5034510;28;20612;-74
2021/06/07 00:42:26;;;;;;;2.20;1.73;;;16.10;99.90;;;;;;5026501;28;20105;-72
2021/06/07 00:44:52;;;;;;;1.98;1.88;;;16.10;99.90;;;;;;5025371;28;20169;-73
2021/06/07 00:47:18;;;;;;;1.83;1.67;;;16.10;99.90;;;;;;5028402;28;20113;-74
2021/06/07 00:49:43;;;;;;;3.15;2.10;;;16.00;99.90;;;;;;5029726;28;20601;-74
2021/06/07 00:52:09;;;;;;;2.30;2.10;;;16.10;99.90;;;;;;5028501;28;20116;-73
2021/06/07 00:54:35;;;;;;;3.22;2.40;;;16.10;99.90;;;;;;5025619;28;20074;-74
2021/06/07 00:57:00;;;;;;;4.40;2.10;;;16.10;99.90;;;;;;5026392;28;20078;-73
2021/06/07 00:59:26;;;;;;;2.53;2.33;;;16.10;99.90;;;;;;5012153;28;20090;-72
2021/06/07 01:01:51;;;;;;;2.58;2.38;;;16.10;99.90;;;;;;5026457;28;20533;-74
2021/06/07 01:04:17;;;;;;;2.40;2.20;;;16.00;99.90;;;;;;5027905;28;20457;-71
2021/06/07 01:06:43;;;;;;;2.28;2.08;;;16.00;99.90;;;;;;5006213;28;20100;-73
2021/06/07 01:09:09;;;;;;;3.47;2.30;;;16.00;99.90;;;;;;5027196;28;20094;-73
2021/06/07 01:11:36;;;;;;;2.88;2.38;;;15.90;99.90;;;;;;5027587;28;20070;-70
2021/06/07 01:14:03;;;;;;;2.65;2.45;;;15.90;99.90;;;;;;5028329;28;20074;-74
2021/06/07 01:16:29;;;;;;;2.70;2.50;;;16.00;99.90;;;;;;5027112;28;20070;-74
2021/06/07 01:18:54;;;;;;;5.10;2.35;;;16.00;99.90;;;;;;5027131;28;20615;-70
2021/06/07 01:21:23;;;;;;;3.25;2.28;;;15.90;99.90;;;;;;5024867;28;20093;-73
2021/06/07 01:23:50;;;;;;;2.72;2.53;;;16.00;99.90;;;;;;5028225;28;20074;-73
2021/06/07 01:26:20;;;;;;;2.95;2.75;;;15.90;99.90;;;;;;5028381;28;20537;-73
2021/06/07 01:28:46;;;;;;;3.17;2.88;;;15.90;99.90;;;;;;5029249;28;20082;-72
2021/06/07 01:31:14;;;;;;;3.33;3.03;;;15.90;99.90;;;;;;5027016;28;20124;-72
2021/06/07 01:33:43;;;;;;;4.40;3.03;;;15.90;99.90;;;;;;5025496;28;20196;-74
2021/06/07 01:36:09;;;;;;;3.13;2.85;;;15.90;99.90;;;;;;5026023;28;20082;-72
2021/06/07 01:38:35;;;;;;;2.83;2.63;;;15.90;99.90;;;;;;5028307;28;20109;-73
2021/06/07 01:41:03;;;;;;;3.25;2.88;;;15.90;99.90;;;;;;5026218;28;20159;-74
2021/06/07 01:43:31;;;;;;;6.88;3.33;;;15.90;99.90;;;;;;5009966;28;20169;-73
2021/06/07 01:45:57;;;;;;;3.85;3.03;;;15.90;99.90;;;;;;5027035;28;20074;-73
2021/06/07 01:48:23;;;;;;;4.10;3.40;;;15.90;99.90;;;;;;5027190;28;20147;-74
2021/06/07 01:50:50;;;;;;;7.00;4.07;;;15.80;99.90;;;;;;5017102;28;20078;-74
2021/06/07 01:53:17;;;;;;;4.90;3.17;;;15.80;99.90;;;;;;5028852;28;20073;-74
2021/06/07 01:55:46;;;;;;;3.75;3.03;;;15.80;99.90;;;;;;5007093;28;20077;-73
2021/06/07 01:58:13;;;;;;;3.50;3.20;;;15.80;99.90;;;;;;5028848;28;20175;-72
2021/06/07 02:00:42;;;;;;;3.65;3.17;;;15.80;99.90;;;;;;5029168;28;20074;-74
2021/06/07 02:03:09;;;;;;;5.22;3.92;;;15.80;99.90;;;;;;5028617;28;20125;-74
2021/06/07 02:05:37;;;;;;;3.15;2.92;;;15.80;99.90;;;;;;5027406;28;20084;-74
2021/06/07 02:08:07;;;;;;;3.33;3.00;;;15.80;99.90;;;;;;4996632;28;20090;-74
2021/06/07 02:10:37;;;;;;;3.55;3.25;;;15.80;99.90;;;;;;5027762;28;20568;-74
2021/06/07 02:13:04;;;;;;;3.60;2.90;;;15.80;99.90;;;;;;5005542;28;20075;-73
2021/06/07 02:15:30;;;;;;;3.10;2.85;;;15.80;99.90;;;;;;4991967;28;20114;-73
2021/06/07 02:18:00;;;;;;;4.35;2.83;;;15.80;99.90;;;;;;5022808;28;20133;-74
2021/06/07 02:20:26;;;;;;;3.88;3.55;;;15.80;99.90;;;;;;5027140;28;20177;-73
2021/06/07 02:22:51;;;;;;;3.80;3.50;;;15.80;99.90;;;;;;5026105;28;20178;-74
2021/06/07 02:25:20;;;;;;;3.70;3.35;;;15.80;99.90;;;;;;5027714;28;20077;-74
2021/06/07 02:27:46;;;;;;;3.80;3.50;;;15.80;99.90;;;;;;5025482;28;20143;-73
2021/06/07 02:30:24;;;;;;;3.88;3.50;;;15.80;99.90;;;;;;5023986;28;20078;-73
2021/06/07 02:32:51;;;;;;;4.22;3.83;;;15.70;99.90;;;;;;5026404;28;20168;-73
2021/06/07 02:35:18;;;;;;;10.25;3.70;;;15.70;99.90;;;;;;5008579;28;20081;-73
2021/06/07 02:37:46;;;;;;;4.47;3.22;;;15.70;99.90;;;;;;5007116;28;20193;-70
2021/06/07 02:40:14;;;;;;;4.43;3.70;;;15.70;99.90;;;;;;5026294;28;20190;-74
2021/06/07 02:42:40;;;;;;;3.75;3.45;;;15.70;99.90;;;;;;5008892;28;20094;-74
2021/06/07 02:45:09;;;;;;;4.10;3.70;;;15.80;99.90;;;;;;5025541;28;20140;-72
2021/06/07 02:47:36;;;;;;;4.15;3.67;;;15.70;99.90;;;;;;5024311;28;20090;-73
2021/06/07 02:50:03;;;;;;;5.35;4.03;;;15.70;99.90;;;;;;5025681;28;20203;-73
2021/06/07 02:52:28;;;;;;;4.20;3.80;;;15.70;99.90;;;;;;5023246;28;20152;-73
2021/06/07 02:54:54;;;;;;;5.35;3.95;;;15.70;99.90;;;;;;5025490;28;20827;-74
2021/06/07 02:57:20;;;;;;;5.63;4.40;;;15.70;99.90;;;;;;5021008;28;20078;-74
2021/06/07 02:59:45;;;;;;;4.38;3.97;;;15.60;99.90;;;;;;5009182;28;20465;-73
2021/06/07 03:02:11;;;;;;;4.82;4.43;;;15.70;99.90;;;;;;5026437;28;20104;-74
2021/06/07 03:04:36;;;;;;;4.18;3.78;;;15.60;99.90;;;;;;5007256;28;21589;-72
2021/06/07 03:07:03;;;;;;;4.57;3.80;;;15.60;99.90;;;;;;5024721;28;20074;-74
2021/06/07 03:09:29;;;;;;;4.30;3.90;;;15.60;99.90;;;;;;5025844;28;20131;-73
2021/06/07 03:11:55;;;;;;;3.78;3.47;;;15.70;99.90;;;;;;5026119;28;20078;-71
2021/06/07 03:14:20;;;;;;;3.88;3.58;;;15.60;99.90;;;;;;5029199;28;20161;-72
2021/06/07 03:16:46;;;;;;;4.55;3.38;;;15.60;99.90;;;;;;5028418;28;20152;-73
2021/06/07 03:19:11;;;;;;;4.97;4.07;;;15.50;99.90;;;;;;4996185;28;20093;-71
2021/06/07 03:21:37;;;;;;;4.00;3.58;;;15.50;99.90;;;;;;5027294;28;20177;-70
2021/06/07 03:24:03;;;;;;;3.90;3.35;;;15.50;99.90;;;;;;5025118;28;20081;-70
2021/06/07 03:26:29;;;;;;;5.10;4.38;;;15.60;99.90;;;;;;5023691;28;20081;-72
2021/06/07 03:28:54;;;;;;;3.92;3.58;;;15.50;99.90;;;;;;5009088;28;20097;-74
2021/06/07 03:31:23;;;;;;;4.18;3.78;;;15.60;99.90;;;;;;5024667;28;20086;-73
2021/06/07 03:33:49;;;;;;;4.68;3.47;;;15.60;99.90;;;;;;5026225;28;20637;-72
2021/06/07 03:36:15;;;;;;;5.50;3.92;;;15.50;99.90;;;;;;5025465;28;20153;-74
2021/06/07 03:38:40;;;;;;;5.20;4.18;;;15.60;99.90;;;;;;5025356;28;20125;-74
2021/06/07 03:41:08;;;;;;;4.28;3.88;;;15.50;99.90;;;;;;5024833;28;20124;-69
2021/06/07 03:43:35;;;;;;;4.80;4.30;;;15.60;99.90;;;;;;5026198;28;20140;-71
2021/06/07 03:46:01;;;;;;;5.18;4.45;;;15.50;99.90;;;;;;5025914;28;20116;-73
2021/06/07 03:48:27;;;;;;;4.20;3.78;;;15.60;99.90;;;;;;5024931;28;20110;-73
2021/06/07 03:50:53;;;;;;;4.57;4.15;;;15.60;99.90;;;;;;5022036;28;20530;-73
2021/06/07 03:53:18;;;;;;;4.20;3.80;;;15.60;99.90;;;;;;5023240;28;20077;-73
2021/06/07 03:55:44;;;;;;;6.15;3.60;;;15.60;99.90;;;;;;5008473;28;20089;-73
2021/06/07 03:58:10;;;;;;;4.93;3.67;;;15.60;99.90;;;;;;5027213;28;20585;-74
2021/06/07 04:00:37;;;;;;;4.10;3.50;;;15.60;99.90;;;;;;5028629;28;20109;-73
2021/06/07 04:03:05;;;;;;;4.35;3.95;;;15.50;99.90;;;;;;5030999;28;20189;-74
2021/06/07 04:05:32;;;;;;;5.47;4.13;;;15.50;99.90;;;;;;5029189;28;20456;-74
2021/06/07 04:07:58;;;;;;;5.07;4.57;;;15.50;99.90;;;;;;5031565;28;20082;-74
2021/06/07 04:10:26;;;;;;;4.40;4.00;;;15.50;99.90;;;;;;5028519;28;20537;-71
2021/06/07 04:12:51;;;;;;;4.60;4.10;;;15.60;99.90;;;;;;5029117;28;20167;-73
2021/06/07 04:15:23;;;;;;;5.43;4.78;;;15.60;99.90;;;;;;5032100;28;20113;-73
2021/06/07 04:17:50;;;;;;;8.35;4.72;;;15.60;99.90;;;;;;5015457;28;20094;-74
2021/06/07 04:20:18;;;;;;;5.20;4.70;;;15.60;99.90;;;;;;5024523;28;20088;-74
2021/06/07 04:22:44;;;;;;;4.85;4.00;;;15.60;99.90;;;;;;5026807;28;20094;-71
2021/06/07 04:25:12;;;;;;;5.28;4.00;;;15.70;99.90;;;;;;5033046;28;20324;-72
2021/06/07 04:27:38;;;;;;;5.63;4.53;;;15.60;99.90;;;;;;5041816;28;21061;-74
2021/06/07 04:30:08;;;;;;;4.85;4.35;;;15.60;99.90;;;;;;5010594;28;20086;-74
2021/06/07 04:32:35;;;;;;;8.00;4.38;;;15.60;99.90;;;;;;5024389;28;20074;-74
2021/06/07 04:35:01;;;;;;;4.13;3.72;;;15.60;99.90;;;;;;5027114;28;20168;-73
2021/06/07 04:37:28;;;;;;;4.57;4.13;;;15.60;99.90;;;;;;5014405;28;20077;-74
2021/06/07 04:39:54;;;;;;;4.88;4.18;;;15.70;99.90;;;;;;5011853;28;20752;-73
2021/06/07 04:42:20;;;;;;;4.13;3.72;;;15.70;99.90;;;;;;5025657;28;20090;-72
2021/06/07 04:44:45;;;;;;;4.45;3.90;;;15.70;99.90;;;;;;5028043;28;20460;-73
2021/06/07 04:47:11;;;;;;;4.60;4.20;;;15.60;99.90;;;;;;5010491;28;20082;-73
2021/06/07 04:49:37;;;;;;;6.97;4.38;;;15.60;99.90;;;;;;5028879;28;20093;-74
2021/06/07 04:52:03;;;;;;;5.22;4.72;;;15.70;99.90;;;;;;5028992;28;20090;-73
2021/06/07 04:54:29;;;;;;;9.38;4.82;;;15.70;99.90;;;;;;5028259;28;20556;-73
2021/06/07 04:56:54;;;;;;;4.72;4.25;;;15.70;99.90;;;;;;5028424;28;20077;-74
2021/06/07 04:59:20;;;;;;;5.20;4.20;;;15.80;99.90;;;;;;5006414;28;20094;-74
2021/06/07 05:01:45;;;;;;;5.60;4.38;;;15.70;99.90;;;;;;5030591;28;20098;-72
2021/06/07 05:04:11;;;;;;;6.38;4.00;;;15.80;99.90;;;;;;5029475;28;20073;-70
2021/06/07 05:06:36;;;;;;;3.83;3.53;;;15.80;99.90;;;;;;5035768;28;20078;-74
2021/06/07 05:09:03;;;;;;;5.03;4.63;;;15.90;99.90;;;;;;5031621;28;20090;-73
2021/06/07 05:11:29;;;;;;;4.95;4.45;;;15.90;99.90;;;;;;5020605;28;20089;-73
2021/06/07 05:13:54;;;;;;;4.97;3.63;;;15.90;99.90;;;;;;5011368;28;20438;-74
2021/06/07 05:16:20;;;;;;;5.32;4.82;;;15.90;99.90;;;;;;5028829;28;20078;-74
2021/06/07 05:18:45;;;;;;;4.30;3.90;;;15.90;99.90;;;;;;5033413;28;20105;-72
2021/06/07 05:21:11;;;;;;;4.63;4.22;;;15.90;99.90;;;;;;5050787;28;20061;-74
2021/06/07 05:23:36;;;;;;;6.30;4.30;;;16.00;99.90;;;;;;5035025;28;20070;-74
2021/06/07 05:26:03;;;;;;;5.90;4.43;;;16.00;99.90;;;;;;5007268;28;20081;-74
2021/06/07 05:28:28;;;;;;;4.70;4.20;;;15.90;99.90;;;;;;5007817;28;20231;-73
2021/06/07 05:30:54;;;;;;;4.93;4.43;;;15.90;99.90;;;;;;5028860;28;20116;-74
2021/06/07 05:33:20;;;;;;;4.72;3.85;;;16.00;99.90;;;;;;5030539;28;20062;-72
2021/06/07 05:35:48;;;;;;;4.38;3.90;;;15.90;99.90;;;;;;5010896;28;20073;-74
2021/06/07 05:38:15;;;;;;;4.07;3.55;;;16.00;99.90;;;;;;5030087;28;20573;-73
2021/06/07 05:40:42;;;;;;;4.35;3.50;;;16.00;99.90;;;;;;5010509;28;20097;-73
2021/06/07 05:43:08;;;;;;;3.67;3.05;;;16.00;99.90;;;;;;5028206;28;20155;-72
2021/06/07 05:45:34;;;;;;;4.07;3.67;;;16.00;99.90;;;;;;5024870;28;20105;-74
2021/06/07 05:48:00;;;;;;;4.25;3.85;;;16.00;99.90;;;;;;5031796;28;20090;-73
2021/06/07 05:50:28;;;;;;;4.75;4.07;;;16.10;99.90;;;;;;5042441;28;20665;-72
2021/06/07 05:52:54;;;;;;;4.20;3.67;;;16.10;99.90;;;;;;5009965;28;20097;-74
2021/06/07 05:55:30;;;;;;;4.32;3.92;;;16.00;99.90;;;;;;5010233;28;20066;-72
2021/06/07 05:58:01;;;;;;;5.43;3.55;;;16.10;99.90;;;;;;5028080;28;20086;-73
2021/06/07 06:00:30;;;;;;;3.67;3.38;;;16.10;99.90;;;;;;5039091;28;20593;-73
2021/06/07 06:02:55;;;;;;;3.83;3.50;;;16.00;99.90;;;;;;5026481;28;20090;-74
2021/06/07 06:05:22;;;;;;;5.03;3.85;;;16.00;99.90;;;;;;5009597;28;20552;-74
2021/06/07 06:07:48;;;;;;;3.85;3.38;;;16.10;99.90;;;;;;5009995;28;20561;-73
2021/06/07 06:10:15;;;;;;;3.80;3.50;;;16.10;99.90;;;;;;5009630;28;20119;-73
2021/06/07 06:12:41;;;;;;;3.50;3.20;;;16.10;99.90;;;;;;5027483;28;20109;-73
2021/06/07 06:15:09;;;;;;;4.63;3.63;;;16.10;99.90;;;;;;5026969;28;20074;-74
2021/06/07 06:17:34;;;;;;;4.95;3.80;;;16.10;99.90;;;;;;5028172;28;20077;-72
2021/06/07 06:20:00;;;;;;;3.97;3.67;;;16.10;99.90;;;;;;5032703;28;20080;-74
2021/06/07 06:22:25;;;;;;;4.43;3.72;;;16.20;99.90;;;;;;5023200;28;20097;-73
2021/06/07 06:24:51;;;;;;;4.65;3.95;;;16.20;99.90;;;;;;5028131;28;20078;-73
2021/06/07 06:27:17;;;;;;;5.38;3.88;;;16.20;99.90;;;;;;5028434;28;20133;-72
2021/06/07 06:29:44;;;;;;;4.57;3.92;;;16.30;99.90;;;;;;5035342;28;20113;-73
2021/06/07 06:32:12;;;;;;;4.40;3.72;;;16.30;99.90;;;;;;5026547;28;20132;-73
2021/06/07 06:34:39;;;;;;;3.42;3.13;;;16.30;99.90;;;;;;5026466;28;20548;-73
2021/06/07 06:37:05;;;;;;;3.08;2.78;;;16.40;99.90;;;;;;5025640;28;20215;-74
2021/06/07 06:39:31;;;;;;;3.40;2.45;;;16.40;99.90;;;;;;5010483;28;20102;-72
2021/06/07 06:41:56;;;;;;;5.10;3.60;;;16.40;99.90;;;;;;5027354;28;20094;-74
2021/06/07 06:44:23;;;;;;;3.33;3.03;;;16.50;99.90;;;;;;5028369;28;20085;-73
2021/06/07 06:46:49;;;;;;;3.60;3.20;;;16.40;99.90;;;;;;5025121;28;20077;-71
2021/06/07 06:49:15;;;;;;;3.65;3.35;;;16.50;99.90;;;;;;5029201;28;20304;-73
2021/06/07 06:51:40;;;;;;;3.97;3.58;;;16.70;99.90;;;;;;5005306;28;20164;-73
2021/06/07 06:54:06;;;;;;;3.95;3.28;;;16.70;99.90;;;;;;5027887;28;20092;-73
2021/06/07 06:56:32;;;;;;;4.07;3.65;;;16.70;99.90;;;;;;5006154;28;20079;-73
2021/06/07 06:58:59;;;;;;;3.42;3.13;;;16.70;99.90;;;;;;5023196;28;20450;-71
2021/06/07 07:01:25;;;;;;;3.65;3.28;;;16.80;99.90;;;;;;5010601;28;20086;-72
2021/06/07 07:03:51;;;;;;;4.38;3.78;;;16.80;99.90;;;;;;5027063;28;20070;-73
2021/06/07 07:06:17;;;;;;;3.67;3.38;;;16.80;99.90;;;;;;5027147;28;20144;-73
2021/06/07 07:08:42;;;;;;;3.70;3.40;;;16.80;99.90;;;;;;5028883;28;20149;-73
2021/06/07 07:11:10;;;;;;;3.63;3.30;;;16.80;99.90;;;;;;5028491;28;20074;-73
2021/06/07 07:13:36;;;;;;;4.35;3.95;;;16.80;99.90;;;;;;5007055;28;20081;-73
2021/06/07 07:16:02;;;;;;;3.92;3.55;;;16.90;99.90;;;;;;5010507;28;20082;-72
2021/06/07 07:18:28;;;;;;;3.55;3.25;;;17.10;99.90;;;;;;5007112;28;20094;-71
2021/06/07 07:20:53;;;;;;;3.38;3.05;;;17.20;99.90;;;;;;5032590;28;20504;-72
2021/06/07 07:23:19;;;;;;;2.65;2.45;;;17.10;99.90;;;;;;5028872;28;20164;-73
2021/06/07 07:25:47;;;;;;;2.92;2.65;;;17.20;99.90;;;;;;5009687;28;20074;-71
2021/06/07 07:28:13;;;;;;;3.05;2.75;;;17.40;99.90;;;;;;5028109;28;20612;-73
2021/06/07 07:30:39;;;;;;;3.47;3.17;;;17.50;99.90;;;;;;5030897;28;20124;-70
2021/06/07 07:33:06;;;;;;;4.20;2.95;;;17.40;99.90;;;;;;5008057;28;20761;-73
2021/06/07 07:35:33;;;;;;;4.20;3.20;;;17.40;99.90;;;;;;5008460;28;20089;-72
2021/06/07 07:38:00;;;;;;;3.28;3.00;;;17.50;99.90;;;;;;5028680;28;20156;-73
2021/06/07 07:40:26;;;;;;;3.25;2.95;;;17.60;99.90;;;;;;5028974;28;20081;-73
2021/06/07 07:42:56;;;;;;;4.90;2.95;;;17.60;99.90;;;;;;5026241;28;20192;-70
2021/06/07 07:45:26;;;;;;;3.58;3.28;;;17.60;99.90;;;;;;5025306;28;20070;-72
2021/06/07 07:48:00;;;;;;;4.10;3.70;;;17.80;99.90;;;;;;5002351;28;20626;-69
2021/06/07 07:50:27;;;;;;;6.18;3.67;;;17.90;99.90;;;;;;5018032;28;20123;-74
2021/06/07 07:52:54;;;;;;;4.20;3.80;;;18.00;99.90;;;;;;5023563;28;20100;-73
2021/06/07 07:55:22;;;;;;;2.65;2.45;;;17.90;99.90;;;;;;5021728;28;20086;-70
2021/06/07 07:57:50;;;;;;;3.03;2.72;;;17.90;99.90;;;;;;5019305;28;20097;-72
2021/06/07 08:00:25;;;;;;;5.57;3.25;;;17.90;99.90;;;;;;5031295;28;20557;-73
2021/06/07 08:02:51;;;;;;;4.05;3.65;;;17.80;99.90;;;;;;5007743;28;20098;-71
2021/06/07 08:05:16;;;;;;;4.65;3.25;;;17.70;99.90;;;;;;5007220;28;20074;-71
2021/06/07 08:07:42;;;;;;;3.05;2.70;;;17.70;99.90;;;;;;4990126;28;20211;-73
2021/06/07 08:10:09;;;;;;;4.20;3.80;;;17.80;99.90;;;;;;5022137;28;20506;-73
2021/06/07 08:12:35;;;;;;;4.47;4.03;;;17.80;99.90;;;;;;5025675;28;20121;-71
2021/06/07 08:15:00;;;;;;;4.20;3.55;;;17.80;99.90;;;;;;5024928;28;20116;-75
2021/06/07 08:17:26;;;;;;;3.70;3.40;;;17.80;99.90;;;;;;5008709;28;20066;-74
2021/06/07 08:19:52;;;;;;;3.97;3.55;;;17.80;99.90;;;;;;5016920;28;20119;-74
2021/06/07 08:22:18;;;;;;;4.05;3.65;;;17.90;99.90;;;;;;5038683;28;20550;-74
2021/06/07 08:24:44;;;;;;;4.75;3.70;;;18.00;99.90;;;;;;5024367;28;20139;-74
2021/06/07 08:27:10;;;;;;;3.42;3.13;;;18.00;99.90;;;;;;5006160;28;20481;-73
2021/06/07 08:29:36;;;;;;;3.17;2.88;;;18.10;99.90;;;;;;5025073;28;20098;-75
2021/06/07 08:32:01;;;;;;;2.30;2.10;;;18.10;99.90;;;;;;5029377;28;20449;-74
2021/06/07 08:34:27;;;;;;;1.88;1.77;;;18.20;99.90;;;;;;5024224;28;20097;-73
2021/06/07 08:36:53;;;;;;;2.38;2.15;;;18.30;99.90;;;;;;5023895;28;20082;-75
2021/06/07 08:39:19;;;;;;;3.78;1.80;;;18.40;99.90;;;;;;5005120;28;60742;-74
2021/06/07 08:41:45;;;;;;;2.50;2.25;;;18.40;99.90;;;;;;5025835;28;20165;-75
2021/06/07 08:44:11;;;;;;;11.85;2.85;;;18.30;99.90;;;;;;5028990;28;20073;-74
2021/06/07 08:46:37;;;;;;;1.85;1.75;;;18.30;99.90;;;;;;5029057;28;20465;-74
2021/06/07 08:49:03;;;;;;;1.63;1.52;;;18.30;99.90;;;;;;5029081;28;20110;-75
2021/06/07 08:51:29;;;;;;;4.25;2.13;;;18.30;99.90;;;;;;5010678;28;20078;-71
2021/06/07 08:53:55;;;;;;;6.38;2.53;;;18.30;99.90;;;;;;5026349;28;20612;-75
2021/06/07 08:56:21;;;;;;;2.08;1.77;;;18.30;99.90;;;;;;5013011;28;20538;-75
2021/06/07 08:58:47;;;;;;;2.70;2.50;;;18.30;99.90;;;;;;5031163;28;20097;-76
2021/06/07 09:01:14;;;;;;;3.97;3.67;;;18.30;99.90;;;;;;5018046;28;20132;-75
2021/06/07 09:03:40;;;;;;;5.78;5.28;;;18.40;99.90;;;;;;5029112;28;20078;-74
2021/06/07 09:06:06;;;;;;;5.78;5.28;;;18.30;99.90;;;;;;5024459;28;20538;-74
2021/06/07 09:08:37;;;;;;;5.80;5.30;;;18.30;99.90;;;;;;5034948;28;20188;-76
2021/06/07 09:11:11;;;;;;;5.95;5.35;;;18.30;99.90;;;;;;5038611;28;20077;-75
2021/06/07 09:13:38;;;;;;;6.13;5.53;;;18.30;99.90;;;;;;5028651;28;20066;-74
2021/06/07 09:16:04;;;;;;;6.07;5.57;;;18.30;99.90;;;;;;5030683;28;20074;-74
2021/06/07 09:18:44;;;;;;;4.90;4.40;;;18.40;99.90;;;;;;5029264;28;20112;-76
2021/06/07 09:21:18;;;;;;;5.15;4.32;;;18.40;99.90;;;;;;5039193;28;20156;-73
2021/06/07 09:23:47;;;;;;;5.13;4.60;;;18.60;99.90;;;;;;5011096;28;20077;-72
2021/06/07 09:26:35;;;;;;;5.18;4.68;;;18.60;99.90;;;;;;5030261;28;20082;-76
2021/06/07 09:29:19;;;;;;;5.22;4.60;;;18.50;99.90;;;;;;5023880;28;20120;-76
2021/06/07 09:31:50;;;;;;;4.13;3.72;;;18.60;99.90;;;;;;5004549;28;20086;-75
2021/06/07 09:34:25;;;;;;;3.90;3.60;;;18.60;99.90;;;;;;5025784;28;20086;-76
2021/06/07 09:36:51;;;;;;;4.50;4.10;;;18.70;99.90;;;;;;5025511;28;20125;-75
2021/06/07 09:39:20;;;;;;;4.28;3.88;;;18.90;99.90;;;;;;5031782;28;20595;-73
2021/06/07 09:41:49;;;;;;;4.05;3.67;;;19.00;99.90;;;;;;5009390;28;20148;-75
2021/06/07 09:44:22;;;;;;;3.78;3.47;;;19.20;99.90;;;;;;5027479;28;20089;-74
2021/06/07 09:46:49;;;;;;;4.07;3.60;;;19.30;99.90;;;;;;5007164;28;20085;-75
2021/06/07 09:49:17;;;;;;;3.50;3.20;;;19.30;99.90;;;;;;5027755;28;20165;-72
2021/06/07 09:51:58;;;;;;;3.60;3.30;;;19.40;99.90;;;;;;5036691;28;20169;-72
2021/06/07 09:54:25;;;;;;;3.90;3.22;;;19.30;99.90;;;;;;5027594;28;20089;-76
2021/06/07 09:56:57;;;;;;;2.78;2.55;;;19.30;99.90;;;;;;5016963;28;20165;-75
2021/06/07 09:59:34;;;;;;;2.40;2.20;;;19.30;99.90;;;;;;5024806;28;20090;-76
2021/06/07 10:02:01;;;;;;;3.30;2.70;;;19.40;99.90;;;;;;5002150;28;20094;-75
2021/06/07 10:04:51;;;;;;;5.22;2.88;;;19.60;99.90;;;;;;5016363;28;20129;-74
2021/06/07 10:07:17;;;;;;;5.65;2.85;;;19.50;99.90;;;;;;5005000;28;20085;-75
2021/06/07 10:10:11;;;;;;;3.80;3.42;;;19.50;99.90;;;;;;5024660;28;20086;-75
2021/06/07 10:12:39;;;;;;;3.55;3.17;;;19.60;99.90;;;;;;5024121;28;20267;-74
2021/06/07 10:15:06;;;;;;;4.10;2.90;;;19.60;99.90;;;;;;5010084;28;20093;-74
2021/06/07 10:17:32;;;;;;;3.70;3.25;;;19.70;99.90;;;;;;5026232;28;20082;-74
2021/06/07 10:22:33;;;;;;;;;;;19.60;99.90;;;;;;5026223;28;20468;-75
2021/06/07 10:24:59;;;;;;;4.53;3.20;;;19.60;99.90;;;;;;5028696;28;20544;-75
2021/06/07 10:27:25;;;;;;;3.00;2.70;;;19.70;99.90;;;;;;5025412;28;20715;-72
2021/06/07 10:29:51;;;;;;;3.22;2.92;;;19.70;99.90;;;;;;5027101;28;20094;-71
2021/06/07 10:32:21;;;;;;;3.33;2.78;;;19.70;99.90;;;;;;5030474;28;20070;-74
2021/06/07 10:34:51;;;;;;;5.25;4.15;;;19.90;99.90;;;;;;5009332;28;20078;-76
2021/06/07 10:37:17;;;;;;;6.53;4.00;;;19.90;99.90;;;;;;5026856;28;20080;-73
2021/06/07 10:39:43;;;;;;;4.28;3.90;;;20.00;99.90;;;;;;5028505;28;20132;-76
2021/06/07 10:42:08;;;;;;;6.47;4.68;;;20.00;99.90;;;;;;5024634;28;20163;-76
2021/06/07 10:44:44;;;;;;;6.50;4.40;;;19.80;99.90;;;;;;5009064;28;20086;-76
2021/06/07 10:47:13;;;;;;;6.93;5.32;;;19.80;99.90;;;;;;5028232;28;20070;-72
2021/06/07 10:49:46;;;;;;;6.22;5.70;;;19.90;99.90;;;;;;5029931;28;20492;-72
2021/06/07 10:52:15;;;;;;;5.78;5.28;;;20.10;99.90;;;;;;5029515;28;20124;-76
2021/06/07 10:55:05;;;;;;;5.40;4.90;;;20.20;99.90;;;;;;5028100;28;20081;-75
2021/06/07 10:57:35;;;;;;;6.22;5.63;;;20.20;99.90;;;;;;5027960;28;20112;-73
2021/06/07 11:00:24;;;;;;;6.18;5.68;;;20.30;99.90;;;;;;5025206;28;20446;-72
2021/06/07 11:02:53;;;;;;;6.35;5.85;;;20.30;99.90;;;;;;4995631;28;20690;-72
2021/06/07 11:05:28;;;;;;;5.78;5.25;;;20.30;99.90;;;;;;5020703;28;20073;-73
2021/06/07 11:08:06;;;;;;;6.22;5.72;;;20.40;99.90;;;;;;5028698;28;20100;-76
2021/06/07 11:10:39;;;;;;;6.30;5.35;;;20.40;99.90;;;;;;5017741;28;20153;-77
2021/06/07 11:13:13;;;;;;;6.80;6.20;;;20.50;99.90;;;;;;5026571;28;20081;-74
2021/06/07 11:15:56;;;;;;;6.05;5.53;;;20.70;99.90;;;;;;5022987;28;20079;-72
2021/06/07 11:18:29;;;;;;;6.45;5.85;;;20.70;99.90;;;;;;5023223;28;20101;-74
2021/06/07 11:21:05;;;;;;;5.20;4.80;;;20.70;99.90;;;;;;5026314;28;20077;-74
2021/06/07 11:23:36;;;;;;;5.95;5.32;;;20.70;99.90;;;;;;5027919;28;20802;-74
2021/06/07 11:26:03;;;;;;;5.97;4.97;;;20.50;99.90;;;;;;5026878;28;20181;-75
2021/06/07 11:28:34;;;;;;;6.95;5.30;;;20.50;99.90;;;;;;5022374;28;20410;-73
2021/06/07 11:31:00;;;;;;;5.45;4.95;;;20.60;99.90;;;;;;5009554;28;20089;-73
2021/06/07 11:33:27;;;;;;;4.50;4.10;;;20.70;99.90;;;;;;5027997;28;20140;-73
2021/06/07 11:35:54;;;;;;;4.72;4.03;;;20.70;99.90;;;;;;5009775;28;20101;-75
2021/06/07 11:38:36;;;;;;;4.47;4.00;;;20.80;99.90;;;;;;5028230;28;20105;-73
2021/06/07 11:41:25;;;;;;;4.78;4.38;;;20.80;99.90;;;;;;5030466;28;20092;-72
2021/06/07 11:43:51;;;;;;;4.65;4.25;;;20.90;99.90;;;;;;5034176;28;20100;-72
2021/06/07 11:46:29;;;;;;;6.32;4.80;;;21.10;99.90;;;;;;5009700;28;20073;-73
2021/06/07 11:49:18;;;;;;;5.85;5.25;;;21.50;99.90;;;;;;5015393;28;20561;-71
2021/06/07 11:51:57;;;;;;;6.18;5.68;;;21.50;99.90;;;;;;5027798;28;20169;-72
2021/06/07 11:54:26;;;;;;;6.22;5.53;;;21.60;99.90;;;;;;5028483;28;20200;-74
2021/06/07 11:56:59;;;;;;;7.35;6.65;;;21.80;99.90;;;;;;5018427;28;20098;-71
2021/06/07 11:59:26;;;;;;;6.15;5.55;;;21.50;99.90;;;;;;5005874;28;20124;-71
2021/06/07 12:01:52;;;;;;;7.03;6.32;;;21.50;99.90;;;;;;5027356;28;20090;-72
2021/06/07 12:04:29;;;;;;;8.00;7.20;;;21.70;99.90;;;;;;5028456;28;20073;-71
2021/06/07 12:07:09;;;;;;;7.00;6.40;;;21.60;99.90;;;;;;5019121;28;20081;-72
2021/06/07 12:09:37;;;;;;;6.57;6.07;;;21.70;99.90;;;;;;5041250;28;20088;-75
2021/06/07 12:12:04;;;;;;;6.03;5.50;;;21.40;99.90;;;;;;5026428;28;20074;-71
2021/06/07 12:14:32;;;;;;;8.13;5.43;;;21.40;99.90;;;;;;5028119;28;20074;-71
2021/06/07 12:17:10;;;;;;;5.75;5.18;;;21.60;99.90;;;;;;5029355;28;20701;-72
2021/06/07 12:19:39;;;;;;;6.20;5.60;;;21.60;99.90;;;;;;5032190;28;20619;-73
2021/06/07 12:22:05;;;;;;;7.40;6.70;;;21.60;99.90;;;;;;5036772;28;20090;-72
2021/06/07 12:24:32;;;;;;;7.25;6.55;;;21.50;99.90;;;;;;5028256;28;20085;-72
2021/06/07 12:29:44;;;;;;;8.73;6.45;;;21.30;99.90;;;;;;5030921;28;20147;-71
2021/06/07 12:32:24;;;;;;;6.85;6.20;;;21.40;99.90;;;;;;5018972;28;20090;-73
2021/06/07 12:35:13;;;;;;;7.18;6.57;;;21.40;99.90;;;;;;5023640;28;20097;-74
2021/06/07 12:37:55;;;;;;;6.43;5.82;;;21.40;99.90;;;;;;5030255;28;20649;-72
2021/06/07 12:40:51;;;;;;;5.65;4.95;;;21.50;99.90;;;;;;5031705;28;21116;-71
2021/06/07 12:43:18;;;;;;;5.28;4.80;;;21.70;99.90;;;;;;4995577;28;20106;-71
2021/06/07 12:45:47;;;;;;;5.88;5.28;;;21.70;99.90;;;;;;5031409;28;20081;-73
2021/06/07 12:48:16;;;;;;;4.40;4.10;;;21.60;99.90;;;;;;5031606;28;20089;-72
2021/06/07 12:50:45;;;;;;;4.18;3.85;;;21.60;99.90;;;;;;5030189;28;20086;-72
2021/06/07 12:53:11;;;;;;;4.30;3.90;;;21.50;99.90;;;;;;5033746;28;20112;-71
2021/06/07 12:55:38;;;;;;;4.53;4.13;;;21.40;99.90;;;;;;5029678;28;20086;-74
2021/06/07 12:58:18;;;;;;;4.15;3.42;;;21.30;99.90;;;;;;5030911;28;20363;-74